Portada
METAR-TAF:

METAR-TAF

Aeroports :

Xiraz, Iran

latitud: 29-32N, longitud: 052-35E, altitud: 1486 m

Observació

L'informe es va fer fa 38 minuts, a les 07:00 UTC
Vent 6 kt del Est
Temperatura 25°C
Humitat 32%
Pressió 1016 hPa
Visibilitat 10 km o més
sense núvols per sota de 1500 mi sense presència de cumulonimbus.

METAR: OISS 190700Z 10006KT CAVOK 25/07 Q1016 A3000

Hora: 12:08 (07:38 UTC)

Pronòstic

L'informe es va fer fa 2 hores i 28 minuts, a les 05:10 UTC
Pronòstic vàlid del 19 a les 06 UTC al 20 a les 12 UTC
Vent 7 kt del Oest
Visibilitat: 8000 m
Temporalment
l' 19 a les 08 UTC al 19 a les 15 UTC
Vent 23 kt del Oest/Sud-Oest

TAF: OISS 190510Z 1906/2012 28007KT 8000 NSC TEMPO 1908/1915 25023KT

Observacions i pronòstics meteorològics de més de 4000 aeroports (METAR i TAF).

Les estacions disponibles són els punts grocs i vermells al mapa.

Posi el ratolí al punt desitjat per veure el nom de l'estació.

Feu clic per veure les observacions i els pronòstics meteorològics.

Per canviar el mapa: feu clic els botons verds amb una creu de color negre per apropar; al botó verd amb un guió per allunyar la imatge; o en les fletxes verdes per a mapes adjacents.


METAR-TAF: